sensor_id;sensor_type;location;lat;lon;timestamp;pressure;altitude;pressure_sealevel;temperature;humidity
60337;BME280;46978;50.288;28.624;2023-03-05T00:00:38;98026.54;;;-4.48;63.48
60337;BME280;46978;50.288;28.624;2023-03-05T00:01:40;98029.04;;;-4.50;63.42
60337;BME280;46978;50.288;28.624;2023-03-05T00:02:41;98029.04;;;-4.50;63.12
60337;BME280;46978;50.288;28.624;2023-03-05T00:03:44;98026.47;;;-4.51;63.74
60337;BME280;46978;50.288;28.624;2023-03-05T00:04:45;98034.04;;;-4.53;63.73
60337;BME280;46978;50.288;28.624;2023-03-05T00:05:47;98033.16;;;-4.55;63.52
60337;BME280;46978;50.288;28.624;2023-03-05T00:06:48;98035.67;;;-4.56;64.12
60337;BME280;46978;50.288;28.624;2023-03-05T00:07:50;98032.26;;;-4.58;64.21
60337;BME280;46978;50.288;28.624;2023-03-05T00:08:52;98033.04;;;-4.61;64.74
60337;BME280;46978;50.288;28.624;2023-03-05T00:09:54;98038.07;;;-4.62;64.56
60337;BME280;46978;50.288;28.624;2023-03-05T00:10:58;98032.95;;;-4.65;64.80
60337;BME280;46978;50.288;28.624;2023-03-05T00:11:59;98034.59;;;-4.67;65.05
60337;BME280;46978;50.288;28.624;2023-03-05T00:13:01;98036.22;;;-4.70;64.92
60337;BME280;46978;50.288;28.624;2023-03-05T00:14:03;98032.81;;;-4.72;65.37
60337;BME280;46978;50.288;28.624;2023-03-05T00:15:05;98029.44;;;-4.72;65.27
60337;BME280;46978;50.288;28.624;2023-03-05T00:16:13;98034.50;;;-4.72;65.46
60337;BME280;46978;50.288;28.624;2023-03-05T00:17:15;98048.03;;;-4.70;65.44
60337;BME280;46978;50.288;28.624;2023-03-05T00:18:17;98032.04;;;-4.69;64.96
60337;BME280;46978;50.288;28.624;2023-03-05T00:19:18;98038.00;;;-4.65;64.86
60337;BME280;46978;50.288;28.624;2023-03-05T00:20:20;98038.82;;;-4.66;65.34
60337;BME280;46978;50.288;28.624;2023-03-05T00:21:27;98032.07;;;-4.67;65.47
60337;BME280;46978;50.288;28.624;2023-03-05T00:22:29;98035.41;;;-4.69;65.61
60337;BME280;46978;50.288;28.624;2023-03-05T00:23:31;98037.13;;;-4.67;65.74
60337;BME280;46978;50.288;28.624;2023-03-05T00:24:32;98038.78;;;-4.68;65.98
60337;BME280;46978;50.288;28.624;2023-03-05T00:25:35;98036.22;;;-4.70;66.21
60337;BME280;46978;50.288;28.624;2023-03-05T00:26:37;98034.53;;;-4.71;66.22
60337;BME280;46978;50.288;28.624;2023-03-05T00:27:39;98042.91;;;-4.73;66.40
60337;BME280;46978;50.288;28.624;2023-03-05T00:28:40;98042.00;;;-4.77;66.88
60337;BME280;46978;50.288;28.624;2023-03-05T00:29:42;98040.25;;;-4.79;67.34
60337;BME280;46978;50.288;28.624;2023-03-05T00:30:44;98042.74;;;-4.81;67.83
60337;BME280;46978;50.288;28.624;2023-03-05T00:31:47;98046.95;;;-4.81;68.22
60337;BME280;46978;50.288;28.624;2023-03-05T00:32:48;98050.33;;;-4.81;68.45
60337;BME280;46978;50.288;28.624;2023-03-05T00:33:54;98050.37;;;-4.79;68.53
60337;BME280;46978;50.288;28.624;2023-03-05T00:34:56;98047.84;;;-4.79;68.72
60337;BME280;46978;50.288;28.624;2023-03-05T00:35:58;98043.59;;;-4.80;68.08
60337;BME280;46978;50.288;28.624;2023-03-05T00:36:59;98043.59;;;-4.80;68.08
60337;BME280;46978;50.288;28.624;2023-03-05T00:38:01;98041.09;;;-4.79;68.01
60337;BME280;46978;50.288;28.624;2023-03-05T00:39:02;98045.41;;;-4.75;67.74
60337;BME280;46978;50.288;28.624;2023-03-05T00:40:05;98048.78;;;-4.74;68.46
60337;BME280;46978;50.288;28.624;2023-03-05T00:41:07;98044.53;;;-4.77;68.18
60337;BME280;46978;50.288;28.624;2023-03-05T00:42:09;98049.55;;;-4.78;68.19
60337;BME280;46978;50.288;28.624;2023-03-05T00:43:11;98046.99;;;-4.80;68.18
60337;BME280;46978;50.288;28.624;2023-03-05T00:44:12;98053.70;;;-4.80;68.28
60337;BME280;46978;50.288;28.624;2023-03-05T00:45:14;98050.30;;;-4.82;67.75
60337;BME280;46978;50.288;28.624;2023-03-05T00:46:16;98051.11;;;-4.83;67.38
60337;BME280;46978;50.288;28.624;2023-03-05T00:47:18;98056.14;;;-4.85;67.31
60337;BME280;46978;50.288;28.624;2023-03-05T00:48:19;98057.05;;;-4.83;66.03
60337;BME280;46978;50.288;28.624;2023-03-05T00:49:21;98059.61;;;-4.81;65.84
60337;BME280;46978;50.288;28.624;2023-03-05T00:50:22;98057.05;;;-4.83;66.02
60337;BME280;46978;50.288;28.624;2023-03-05T00:51:25;98066.26;;;-4.85;66.45
60337;BME280;46978;50.288;28.624;2023-03-05T00:52:27;98066.26;;;-4.85;66.34
60337;BME280;46978;50.288;28.624;2023-03-05T00:53:29;98058.63;;;-4.87;66.22
60337;BME280;46978;50.288;28.624;2023-03-05T00:54:30;98062.81;;;-4.89;66.23
60337;BME280;46978;50.288;28.624;2023-03-05T00:55:32;98061.97;;;-4.89;65.64
60337;BME280;46978;50.288;28.624;2023-03-05T00:56:34;98068.69;;;-4.90;65.59
60337;BME280;46978;50.288;28.624;2023-03-05T00:57:36;98066.13;;;-4.91;66.44
60337;BME280;46978;50.288;28.624;2023-03-05T00:58:38;98057.69;;;-4.92;66.08
60337;BME280;46978;50.288;28.624;2023-03-05T00:59:40;98072.87;;;-4.92;66.08
60337;BME280;46978;50.288;28.624;2023-03-05T01:00:41;98071.15;;;-4.93;66.54
60337;BME280;46978;50.288;28.624;2023-03-05T01:01:43;98071.95;;;-4.95;66.79
60337;BME280;46978;50.288;28.624;2023-03-05T01:02:45;98074.45;;;-4.97;66.97
60337;BME280;46978;50.288;28.624;2023-03-05T01:03:46;98076.07;;;-4.99;67.05
60337;BME280;46978;50.288;28.624;2023-03-05T01:04:48;98070.98;;;-5.00;67.26
60337;BME280;46978;50.288;28.624;2023-03-05T01:05:49;98075.13;;;-5.04;67.41
60337;BME280;46978;50.288;28.624;2023-03-05T01:06:51;98069.18;;;-5.06;67.60
60337;BME280;46978;50.288;28.624;2023-03-05T01:07:54;98072.52;;;-5.07;67.60
60337;BME280;46978;50.288;28.624;2023-03-05T01:08:56;98075.86;;;-5.08;67.18
60337;BME280;46978;50.288;28.624;2023-03-05T01:09:58;98076.73;;;-5.08;67.52
60337;BME280;46978;50.288;28.624;2023-03-05T01:11:01;98073.30;;;-5.10;67.49
60337;BME280;46978;50.288;28.624;2023-03-05T01:12:03;98074.17;;;-5.09;67.69
60337;BME280;46978;50.288;28.624;2023-03-05T01:13:05;98077.51;;;-5.10;67.32
60337;BME280;46978;50.288;28.624;2023-03-05T01:14:06;98073.30;;;-5.10;67.61
60337;BME280;46978;50.288;28.624;2023-03-05T01:15:08;98077.55;;;-5.09;67.48
60337;BME280;46978;50.288;28.624;2023-03-05T01:16:11;98080.08;;;-5.09;67.33
60337;BME280;46978;50.288;28.624;2023-03-05T01:17:13;98075.08;;;-5.06;67.32
60337;BME280;46978;50.288;28.624;2023-03-05T01:18:16;98082.70;;;-5.04;67.28
60337;BME280;46978;50.288;28.624;2023-03-05T01:19:18;98084.43;;;-5.03;67.52
60337;BME280;46978;50.288;28.624;2023-03-05T01:20:21;98089.52;;;-5.01;67.27
60337;BME280;46978;50.288;28.624;2023-03-05T01:21:23;98089.56;;;-5.00;67.71
60337;BME280;46978;50.288;28.624;2023-03-05T01:22:25;98087.91;;;-4.98;67.55
60337;BME280;46978;50.288;28.624;2023-03-05T01:23:26;98087.98;;;-4.95;66.80
60337;BME280;46978;50.288;28.624;2023-03-05T01:24:29;98096.48;;;-4.91;67.30
60337;BME280;46978;50.288;28.624;2023-03-05T01:25:31;98093.98;;;-4.90;66.76
60337;BME280;46978;50.288;28.624;2023-03-05T01:26:33;98089.00;;;-4.87;67.00
60337;BME280;46978;50.288;28.624;2023-03-05T01:27:35;98092.44;;;-4.84;67.09
60337;BME280;46978;50.288;28.624;2023-03-05T01:28:37;98092.50;;;-4.81;67.43
60337;BME280;46978;50.288;28.624;2023-03-05T01:29:39;98092.54;;;-4.80;66.91
60337;BME280;46978;50.288;28.624;2023-03-05T01:30:40;98095.95;;;-4.78;66.41
60337;BME280;46978;50.288;28.624;2023-03-05T01:31:42;98093.48;;;-4.75;66.66
60337;BME280;46978;50.288;28.624;2023-03-05T01:32:44;98095.20;;;-4.74;66.50
60337;BME280;46978;50.288;28.624;2023-03-05T01:33:46;98100.30;;;-4.72;66.75
60337;BME280;46978;50.288;28.624;2023-03-05T01:34:48;98096.93;;;-4.71;65.90
60337;BME280;46978;50.288;28.624;2023-03-05T01:35:50;98094.43;;;-4.70;65.86
60337;BME280;46978;50.288;28.624;2023-03-05T01:36:52;98094.47;;;-4.68;66.10
60337;BME280;46978;50.288;28.624;2023-03-05T01:37:53;98092.81;;;-4.67;66.25
60337;BME280;46978;50.288;28.624;2023-03-05T01:38:55;98092.88;;;-4.64;65.93
60337;BME280;46978;50.288;28.624;2023-03-05T01:39:56;98098.78;;;-4.64;66.00
60337;BME280;46978;50.288;28.624;2023-03-05T01:40:58;98095.44;;;-4.63;65.33
60337;BME280;46978;50.288;28.624;2023-03-05T01:42:00;98098.84;;;-4.61;65.83
60337;BME280;46978;50.288;28.624;2023-03-05T01:44:25;98097.16;;;-4.60;66.18
60337;BME280;46978;50.288;28.624;2023-03-05T01:45:34;98098.88;;;-4.59;66.26
60337;BME280;46978;50.288;28.624;2023-03-05T01:46:37;98097.20;;;-4.59;66.21
60337;BME280;46978;50.288;28.624;2023-03-05T01:47:39;98098.07;;;-4.58;65.65
60337;BME280;46978;50.288;28.624;2023-03-05T01:49:25;98104.83;;;-4.57;65.97
60337;BME280;46978;50.288;28.624;2023-03-05T01:49:49;98097.23;;;-4.57;65.99
60337;BME280;46978;50.288;28.624;2023-03-05T01:50:51;98101.52;;;-4.55;66.31
60337;BME280;46978;50.288;28.624;2023-03-05T01:52:05;98104.05;;;-4.55;65.99
60337;BME280;46978;50.288;28.624;2023-03-05T01:53:07;98098.14;;;-4.55;66.39
60337;BME280;46978;50.288;28.624;2023-03-05T01:54:10;98100.70;;;-4.54;66.27
60337;BME280;46978;50.288;28.624;2023-03-05T01:55:19;98098.17;;;-4.54;65.90
60337;BME280;46978;50.288;28.624;2023-03-05T01:56:21;98111.64;;;-4.55;65.86
60337;BME280;46978;50.288;28.624;2023-03-05T01:57:32;98100.70;;;-4.54;65.59
60337;BME280;46978;50.288;28.624;2023-03-05T01:58:35;98100.70;;;-4.54;65.59
60337;BME280;46978;50.288;28.624;2023-03-05T01:59:38;98104.08;;;-4.53;65.42
60337;BME280;46978;50.288;28.624;2023-03-05T02:00:44;98101.55;;;-4.53;65.93
60337;BME280;46978;50.288;28.624;2023-03-05T02:01:49;98104.92;;;-4.53;65.96
60337;BME280;46978;50.288;28.624;2023-03-05T02:02:52;98114.23;;;-4.52;66.21
60337;BME280;46978;50.288;28.624;2023-03-05T02:03:54;98108.39;;;-4.49;66.89
60337;BME280;46978;50.288;28.624;2023-03-05T02:05:02;98108.39;;;-4.49;66.89
60337;BME280;46978;50.288;28.624;2023-03-05T02:06:04;98109.23;;;-4.48;66.56
60337;BME280;46978;50.288;28.624;2023-03-05T02:07:06;98120.21;;;-4.48;65.96
60337;BME280;46978;50.288;28.624;2023-03-05T02:08:12;98117.64;;;-4.50;66.01
60337;BME280;46978;50.288;28.624;2023-03-05T02:09:14;98102.33;;;-4.56;66.19
60337;BME280;46978;50.288;28.624;2023-03-05T02:10:27;98110.05;;;-4.50;66.30
60337;BME280;46978;50.288;28.624;2023-03-05T02:11:30;98121.87;;;-4.50;66.29
60337;BME280;46978;50.288;28.624;2023-03-05T02:12:33;98116.77;;;-4.52;66.46
60337;BME280;46978;50.288;28.624;2023-03-05T02:13:35;98111.70;;;-4.52;66.71
60337;BME280;46978;50.288;28.624;2023-03-05T02:14:38;98121.83;;;-4.52;66.90
60337;BME280;46978;50.288;28.624;2023-03-05T02:15:41;98116.77;;;-4.52;66.54
60337;BME280;46978;50.288;28.624;2023-03-05T02:16:46;98126.83;;;-4.55;66.43
60337;BME280;46978;50.288;28.624;2023-03-05T02:17:48;98117.58;;;-4.53;66.52
60337;BME280;46978;50.288;28.624;2023-03-05T02:18:49;98124.33;;;-4.53;66.18
60337;BME280;46978;50.288;28.624;2023-03-05T02:19:54;98116.73;;;-4.53;66.36
60337;BME280;46978;50.288;28.624;2023-03-05T02:21:07;98118.42;;;-4.54;66.50
60337;BME280;46978;50.288;28.624;2023-03-05T02:22:01;98119.27;;;-4.53;67.00
60337;BME280;46978;50.288;28.624;2023-03-05T02:23:03;98122.64;;;-4.53;67.02
60337;BME280;46978;50.288;28.624;2023-03-05T02:24:05;98121.77;;;-4.55;66.91
60337;BME280;46978;50.288;28.624;2023-03-05T02:25:25;98125.14;;;-4.54;66.88
60337;BME280;46978;50.288;28.624;2023-03-05T02:26:27;98114.20;;;-4.53;67.48
60337;BME280;46978;50.288;28.624;2023-03-05T02:27:30;98128.55;;;-4.54;67.14
60337;BME280;46978;50.288;28.624;2023-03-05T02:28:48;98117.58;;;-4.53;67.39
60337;BME280;46978;50.288;28.624;2023-03-05T02:29:50;98124.36;;;-4.52;66.89
60337;BME280;46978;50.288;28.624;2023-03-05T02:30:53;98118.45;;;-4.52;67.28
60337;BME280;46978;50.288;28.624;2023-03-05T02:31:55;98122.67;;;-4.51;67.41
60337;BME280;46978;50.288;28.624;2023-03-05T02:32:57;98132.77;;;-4.53;67.61
60337;BME280;46978;50.288;28.624;2023-03-05T02:33:58;98118.45;;;-4.52;67.88
60337;BME280;46978;50.288;28.624;2023-03-05T02:35:00;98119.30;;;-4.52;67.60
60337;BME280;46978;50.288;28.624;2023-03-05T02:36:02;98131.11;;;-4.52;67.51
60337;BME280;46978;50.288;28.624;2023-03-05T02:37:04;98128.58;;;-4.52;67.13
60337;BME280;46978;50.288;28.624;2023-03-05T02:38:06;98122.64;;;-4.53;67.14
60337;BME280;46978;50.288;28.624;2023-03-05T02:39:08;98123.55;;;-4.51;67.66
60337;BME280;46978;50.288;28.624;2023-03-05T02:40:12;98128.61;;;-4.51;67.32
60337;BME280;46978;50.288;28.624;2023-03-05T02:41:14;98126.05;;;-4.52;67.17
60337;BME280;46978;50.288;28.624;2023-03-05T02:42:16;98126.02;;;-4.54;67.70
60337;BME280;46978;50.288;28.624;2023-03-05T02:43:17;98126.02;;;-4.54;67.70
60337;BME280;46978;50.288;28.624;2023-03-05T02:44:19;98136.98;;;-4.53;67.29
60337;BME280;46978;50.288;28.624;2023-03-05T02:45:21;98129.39;;;-4.53;67.53
60337;BME280;46978;50.288;28.624;2023-03-05T02:46:22;98133.61;;;-4.54;67.52
60337;BME280;46978;50.288;28.624;2023-03-05T02:47:24;98134.45;;;-4.53;67.86
60337;BME280;46978;50.288;28.624;2023-03-05T02:48:26;98134.42;;;-4.55;67.43
60337;BME280;46978;50.288;28.624;2023-03-05T02:49:28;98139.52;;;-4.53;67.62
60337;BME280;46978;50.288;28.624;2023-03-05T02:50:30;98124.36;;;-4.52;67.85
60337;BME280;46978;50.288;28.624;2023-03-05T02:51:32;98122.64;;;-4.53;68.43
60337;BME280;46978;50.288;28.624;2023-03-05T02:52:34;98129.39;;;-4.53;68.13
60337;BME280;46978;50.288;28.624;2023-03-05T02:53:36;98125.20;;;-4.51;68.15
60337;BME280;46978;50.288;28.624;2023-03-05T02:54:37;98128.58;;;-4.52;67.81
60337;BME280;46978;50.288;28.624;2023-03-05T02:55:39;98132.77;;;-4.53;67.81
60337;BME280;46978;50.288;28.624;2023-03-05T02:56:40;98120.11;;;-4.53;68.15
60337;BME280;46978;50.288;28.624;2023-03-05T02:57:42;98120.11;;;-4.53;68.15
60337;BME280;46978;50.288;28.624;2023-03-05T02:58:44;98131.89;;;-4.55;67.78
60337;BME280;46978;50.288;28.624;2023-03-05T02:59:46;98130.20;;;-4.54;67.70
60337;BME280;46978;50.288;28.624;2023-03-05T03:00:48;98129.36;;;-4.55;68.06
60337;BME280;46978;50.288;28.624;2023-03-05T03:01:49;98132.67;;;-4.57;67.37
60337;BME280;46978;50.288;28.624;2023-03-05T03:02:51;98116.64;;;-4.58;67.45
60337;BME280;46978;50.288;28.624;2023-03-05T03:03:53;98125.88;;;-4.60;67.38
60337;BME280;46978;50.288;28.624;2023-03-05T03:04:55;98136.82;;;-4.61;67.74
60337;BME280;46978;50.288;28.624;2023-03-05T03:05:56;98126.66;;;-4.62;68.09
60337;BME280;46978;50.288;28.624;2023-03-05T03:06:58;98134.22;;;-4.64;67.97
60337;BME280;46978;50.288;28.624;2023-03-05T03:07:59;98132.43;;;-4.68;68.09
60337;BME280;46978;50.288;28.624;2023-03-05T03:09:01;98134.92;;;-4.70;68.65
60337;BME280;46978;50.288;28.624;2023-03-05T03:10:04;98121.36;;;-4.73;67.95
60337;BME280;46978;50.288;28.624;2023-03-05T03:11:09;98128.11;;;-4.74;68.20
60337;BME280;46978;50.288;28.624;2023-03-05T03:12:11;98131.41;;;-4.76;68.33
60337;BME280;46978;50.288;28.624;2023-03-05T03:13:13;98126.28;;;-4.79;68.47
60337;BME280;46978;50.288;28.624;2023-03-05T03:14:15;98129.66;;;-4.79;68.70
60337;BME280;46978;50.288;28.624;2023-03-05T03:15:17;98133.84;;;-4.81;68.63
60337;BME280;46978;50.288;28.624;2023-03-05T03:16:19;98132.08;;;-4.83;68.31
60337;BME280;46978;50.288;28.624;2023-03-05T03:17:20;98129.55;;;-4.83;68.73
60337;BME280;46978;50.288;28.624;2023-03-05T03:18:22;98132.92;;;-4.84;68.90
60337;BME280;46978;50.288;28.624;2023-03-05T03:19:24;98139.59;;;-4.87;68.82
60337;BME280;46978;50.288;28.624;2023-03-05T03:20:25;98135.42;;;-4.86;68.81
60337;BME280;46978;50.288;28.624;2023-03-05T03:21:27;98132.84;;;-4.88;68.88
60337;BME280;46978;50.288;28.624;2023-03-05T03:22:29;98138.72;;;-4.89;68.37
60337;BME280;46978;50.288;28.624;2023-03-05T03:23:31;98137.88;;;-4.89;68.67
60337;BME280;46978;50.288;28.624;2023-03-05T03:24:36;98128.56;;;-4.90;68.55
60337;BME280;46978;50.288;28.624;2023-03-05T03:25:37;98135.31;;;-4.91;69.02
60337;BME280;46978;50.288;28.624;2023-03-05T03:26:38;98131.86;;;-4.93;69.10
60337;BME280;46978;50.288;28.624;2023-03-05T03:27:40;98136.08;;;-4.93;68.91
60337;BME280;46978;50.288;28.624;2023-03-05T03:28:42;98141.11;;;-4.95;68.66
60337;BME280;46978;50.288;28.624;2023-03-05T03:29:44;98141.07;;;-4.96;68.90
60337;BME280;46978;50.288;28.624;2023-03-05T03:30:45;98134.29;;;-4.97;68.74
60337;BME280;46978;50.288;28.624;2023-03-05T03:31:47;98130.95;;;-4.96;68.70
60337;BME280;46978;50.288;28.624;2023-03-05T03:32:50;98133.44;;;-4.98;68.83
60337;BME280;46978;50.288;28.624;2023-03-05T03:33:52;98129.23;;;-4.97;68.73
60337;BME280;46978;50.288;28.624;2023-03-05T03:34:54;98134.33;;;-4.96;69.00
60337;BME280;46978;50.288;28.624;2023-03-05T03:35:55;98136.01;;;-4.96;68.79
60337;BME280;46978;50.288;28.624;2023-03-05T03:36:57;98131.80;;;-4.96;68.28
60337;BME280;46978;50.288;28.624;2023-03-05T03:37:59;98128.42;;;-4.96;68.37
60337;BME280;46978;50.288;28.624;2023-03-05T03:39:00;98130.95;;;-4.96;68.56
60337;BME280;46978;50.288;28.624;2023-03-05T03:40:03;98131.80;;;-4.96;68.20
60337;BME280;46978;50.288;28.624;2023-03-05T03:41:05;98139.38;;;-4.96;68.35
60337;BME280;46978;50.288;28.624;2023-03-05T03:42:07;98130.11;;;-4.97;68.64
60337;BME280;46978;50.288;28.624;2023-03-05T03:43:09;98132.63;;;-4.97;68.71
60337;BME280;46978;50.288;28.624;2023-03-05T03:44:11;98124.20;;;-4.96;68.35
60337;BME280;46978;50.288;28.624;2023-03-05T03:45:13;98126.77;;;-4.94;68.37
60337;BME280;46978;50.288;28.624;2023-03-05T03:46:15;98125.92;;;-4.95;68.64
60337;BME280;46978;50.288;28.624;2023-03-05T03:47:17;98130.17;;;-4.94;68.60
60337;BME280;46978;50.288;28.624;2023-03-05T03:48:19;98127.69;;;-4.92;68.63
60337;BME280;46978;50.288;28.624;2023-03-05T03:49:22;98131.86;;;-4.93;68.74
60337;BME280;46978;50.288;28.624;2023-03-05T03:50:25;98135.27;;;-4.92;68.46
60337;BME280;46978;50.288;28.624;2023-03-05T03:51:26;98128.53;;;-4.92;68.33
60337;BME280;46978;50.288;28.624;2023-03-05T03:52:28;98135.31;;;-4.91;68.17
60337;BME280;46978;50.288;28.624;2023-03-05T03:53:30;98132.81;;;-4.89;68.48
60337;BME280;46978;50.288;28.624;2023-03-05T03:54:32;98133.66;;;-4.89;68.74
60337;BME280;46978;50.288;28.624;2023-03-05T03:55:34;98131.16;;;-4.87;68.97
60337;BME280;46978;50.288;28.624;2023-03-05T03:56:36;98132.84;;;-4.88;68.04
60337;BME280;46978;50.288;28.624;2023-03-05T03:57:37;98131.16;;;-4.87;68.20
60337;BME280;46978;50.288;28.624;2023-03-05T03:58:39;98136.26;;;-4.86;68.47
60337;BME280;46978;50.288;28.624;2023-03-05T03:59:41;98140.52;;;-4.84;68.02
60337;BME280;46978;50.288;28.624;2023-03-05T04:00:42;98132.08;;;-4.83;67.91
60337;BME280;46978;50.288;28.624;2023-03-05T04:01:44;98132.95;;;-4.83;68.10
60337;BME280;46978;50.288;28.624;2023-03-05T04:02:46;98136.33;;;-4.82;67.96
60337;BME280;46978;50.288;28.624;2023-03-05T04:03:48;98138.05;;;-4.81;68.52
60337;BME280;46978;50.288;28.624;2023-03-05T04:04:49;98143.11;;;-4.81;68.65
60337;BME280;46978;50.288;28.624;2023-03-05T04:05:51;98135.52;;;-4.81;68.63
60337;BME280;46978;50.288;28.624;2023-03-05T04:06:53;98142.27;;;-4.80;68.49
60337;BME280;46978;50.288;28.624;2023-03-05T04:07:54;98138.94;;;-4.79;68.55
60337;BME280;46978;50.288;28.624;2023-03-05T04:08:56;98138.09;;;-4.80;68.41
60337;BME280;46978;50.288;28.624;2023-03-05T04:09:58;98138.94;;;-4.79;68.30
60337;BME280;46978;50.288;28.624;2023-03-05T04:11:01;98135.56;;;-4.80;68.45
60337;BME280;46978;50.288;28.624;2023-03-05T04:12:03;98138.94;;;-4.79;68.19
60337;BME280;46978;50.288;28.624;2023-03-05T04:13:05;98138.94;;;-4.79;68.48
60337;BME280;46978;50.288;28.624;2023-03-05T04:14:07;98139.78;;;-4.79;68.14
60337;BME280;46978;50.288;28.624;2023-03-05T04:15:09;98141.47;;;-4.79;68.08
60337;BME280;46978;50.288;28.624;2023-03-05T04:16:12;98143.99;;;-4.79;68.24
60337;BME280;46978;50.288;28.624;2023-03-05T04:17:15;98138.12;;;-4.78;68.17
60337;BME280;46978;50.288;28.624;2023-03-05T04:18:16;98140.62;;;-4.80;68.18
60337;BME280;46978;50.288;28.624;2023-03-05T04:19:18;98136.40;;;-4.79;68.20
60337;BME280;46978;50.288;28.624;2023-03-05T04:20:20;98139.74;;;-4.80;68.42
60337;BME280;46978;50.288;28.624;2023-03-05T04:21:21;98140.58;;;-4.81;68.31
60337;BME280;46978;50.288;28.624;2023-03-05T04:22:23;98140.58;;;-4.81;68.18
60337;BME280;46978;50.288;28.624;2023-03-05T04:23:25;98141.39;;;-4.82;68.04
60337;BME280;46978;50.288;28.624;2023-03-05T04:24:26;98138.86;;;-4.82;67.97
60337;BME280;46978;50.288;28.624;2023-03-05T04:25:28;98148.11;;;-4.84;67.68
60337;BME280;46978;50.288;28.624;2023-03-05T04:26:30;98145.57;;;-4.84;67.92
60337;BME280;46978;50.288;28.624;2023-03-05T04:27:32;98139.63;;;-4.85;68.22
60337;BME280;46978;50.288;28.624;2023-03-05T04:28:34;98145.50;;;-4.88;68.04
60337;BME280;46978;50.288;28.624;2023-03-05T04:29:36;98142.94;;;-4.89;68.08
60337;BME280;46978;50.288;28.624;2023-03-05T04:30:38;98149.65;;;-4.90;68.42
60337;BME280;46978;50.288;28.624;2023-03-05T04:31:40;98141.17;;;-4.92;68.26
60337;BME280;46978;50.288;28.624;2023-03-05T04:32:41;98149.58;;;-4.93;68.43
60337;BME280;46978;50.288;28.624;2023-03-05T04:33:43;98146.20;;;-4.93;68.29
60337;BME280;46978;50.288;28.624;2023-03-05T04:34:45;98150.41;;;-4.94;68.12
60337;BME280;46978;50.288;28.624;2023-03-05T04:35:47;98152.06;;;-4.94;68.84
60337;BME280;46978;50.288;28.624;2023-03-05T04:36:48;98155.44;;;-4.95;68.50
60337;BME280;46978;50.288;28.624;2023-03-05T04:37:50;98155.44;;;-4.95;68.85
60337;BME280;46978;50.288;28.624;2023-03-05T04:38:54;98153.72;;;-4.96;68.35
60337;BME280;46978;50.288;28.624;2023-03-05T04:39:55;98146.09;;;-4.98;67.75
60337;BME280;46978;50.288;28.624;2023-03-05T04:40:57;98145.21;;;-5.00;67.75
60337;BME280;46978;50.288;28.624;2023-03-05T04:41:59;98151.08;;;-5.01;68.22
60337;BME280;46978;50.288;28.624;2023-03-05T04:43:01;98153.53;;;-5.04;68.36
60337;BME280;46978;50.288;28.624;2023-03-05T04:44:03;98139.09;;;-5.08;68.20
60337;BME280;46978;50.288;28.624;2023-03-05T04:45:06;98144.98;;;-5.09;68.46
60337;BME280;46978;50.288;28.624;2023-03-05T04:46:08;98144.03;;;-5.13;68.02
60337;BME280;46978;50.288;28.624;2023-03-05T04:47:29;98154.95;;;-5.15;68.26
60337;BME280;46978;50.288;28.624;2023-03-05T04:48:31;98152.34;;;-5.18;68.60
60337;BME280;46978;50.288;28.624;2023-03-05T04:49:33;98154.80;;;-5.22;69.04
60337;BME280;46978;50.288;28.624;2023-03-05T04:50:35;98150.47;;;-5.26;68.88
60337;BME280;46978;50.288;28.624;2023-03-05T04:51:36;98157.18;;;-5.28;68.96
60337;BME280;46978;50.288;28.624;2023-03-05T04:52:40;98155.42;;;-5.30;68.94
60337;BME280;46978;50.288;28.624;2023-03-05T04:53:42;98156.22;;;-5.33;69.11
60337;BME280;46978;50.288;28.624;2023-03-05T04:54:44;98166.25;;;-5.36;69.41
60337;BME280;46978;50.288;28.624;2023-03-05T04:55:51;98168.66;;;-5.41;69.25
60337;BME280;46978;50.288;28.624;2023-03-05T04:56:53;98172.84;;;-5.41;69.11
60337;BME280;46978;50.288;28.624;2023-03-05T04:57:54;98165.14;;;-5.46;69.65
60337;BME280;46978;50.288;28.624;2023-03-05T04:58:56;98165.14;;;-5.46;69.65
60337;BME280;46978;50.288;28.624;2023-03-05T04:59:59;98165.09;;;-5.47;69.63
60337;BME280;46978;50.288;28.624;2023-03-05T05:01:02;98163.41;;;-5.48;70.08
60337;BME280;46978;50.288;28.624;2023-03-05T05:02:04;98175.12;;;-5.50;70.37
60337;BME280;46978;50.288;28.624;2023-03-05T05:03:06;98175.96;;;-5.51;70.33
60337;BME280;46978;50.288;28.624;2023-03-05T05:04:08;98175.96;;;-5.51;70.33
60337;BME280;46978;50.288;28.624;2023-03-05T05:05:12;98178.48;;;-5.51;70.16
60337;BME280;46978;50.288;28.624;2023-03-05T05:06:14;98172.60;;;-5.50;70.31
60337;BME280;46978;50.288;28.624;2023-03-05T05:07:15;98152.38;;;-5.50;70.39
60337;BME280;46978;50.288;28.624;2023-03-05T05:08:17;98176.89;;;-5.48;70.09
60337;BME280;46978;50.288;28.624;2023-03-05T05:09:19;98176.08;;;-5.47;70.27
60337;BME280;46978;50.288;28.624;2023-03-05T05:10:21;98182.83;;;-5.46;70.17
60337;BME280;46978;50.288;28.624;2023-03-05T05:11:23;98177.86;;;-5.43;70.33
60337;BME280;46978;50.288;28.624;2023-03-05T05:12:27;98172.03;;;-5.40;70.36
60337;BME280;46978;50.288;28.624;2023-03-05T05:13:29;98175.45;;;-5.38;69.89
60337;BME280;46978;50.288;28.624;2023-03-05T05:14:33;98180.58;;;-5.35;70.05
60337;BME280;46978;50.288;28.624;2023-03-05T05:15:34;98177.20;;;-5.35;69.92
60337;BME280;46978;50.288;28.624;2023-03-05T05:16:36;98175.60;;;-5.32;70.13
60337;BME280;46978;50.288;28.624;2023-03-05T05:17:38;98168.86;;;-5.33;70.15
60337;BME280;46978;50.288;28.624;2023-03-05T05:18:40;98174.84;;;-5.29;70.23
60337;BME280;46978;50.288;28.624;2023-03-05T05:19:41;98180.78;;;-5.27;69.79
60337;BME280;46978;50.288;28.624;2023-03-05T05:20:43;98181.66;;;-5.27;69.67
60337;BME280;46978;50.288;28.624;2023-03-05T05:21:45;98183.34;;;-5.26;69.80
60337;BME280;46978;50.288;28.624;2023-03-05T05:22:47;98172.42;;;-5.25;69.53
60337;BME280;46978;50.288;28.624;2023-03-05T05:23:49;98176.64;;;-5.24;69.74
60337;BME280;46978;50.288;28.624;2023-03-05T05:24:50;98185.99;;;-5.21;69.74
60337;BME280;46978;50.288;28.624;2023-03-05T05:25:59;98176.72;;;-5.20;69.58
60337;BME280;46978;50.288;28.624;2023-03-05T05:27:02;98170.05;;;-5.18;69.66
60337;BME280;46978;50.288;28.624;2023-03-05T05:28:04;98175.11;;;-5.18;68.97